createdAt,value
2023-01-30T00:00:43.733Z,0.00
2023-01-30T00:01:43.745Z,0.00
2023-01-30T00:02:43.675Z,0.00
2023-01-30T00:03:43.687Z,0.00
2023-01-30T00:04:43.682Z,0.00
2023-01-30T00:05:43.648Z,0.00
2023-01-30T00:06:43.653Z,0.00
2023-01-30T00:07:43.634Z,0.00
2023-01-30T00:08:43.634Z,0.00
2023-01-30T00:09:43.611Z,0.00
2023-01-30T00:10:43.600Z,0.00
2023-01-30T00:11:43.658Z,0.00
2023-01-30T00:12:43.571Z,0.00
2023-01-30T00:13:43.578Z,0.00
2023-01-30T00:14:43.560Z,0.00
2023-01-30T00:15:43.556Z,0.00
2023-01-30T00:16:43.664Z,0.00
2023-01-30T00:17:43.533Z,0.00
2023-01-30T00:18:43.529Z,0.00
2023-01-30T00:19:43.503Z,0.00
2023-01-30T00:20:43.496Z,0.00
2023-01-30T00:21:43.505Z,0.00
2023-01-30T00:22:52.428Z,0.00
2023-01-30T00:23:43.490Z,0.00
2023-01-30T00:24:43.587Z,0.00
2023-01-30T00:25:43.521Z,0.00
2023-01-30T00:26:43.502Z,0.00
2023-01-30T00:27:43.435Z,0.00
2023-01-30T00:28:43.418Z,0.00
2023-01-30T00:29:49.294Z,0.00
2023-01-30T00:30:43.434Z,0.00
2023-01-30T00:31:43.450Z,0.00
2023-01-30T00:32:43.375Z,0.00
2023-01-30T00:33:43.375Z,0.00
2023-01-30T00:34:43.356Z,0.00
2023-01-30T00:35:45.257Z,0.00
2023-01-30T00:36:43.325Z,0.00
2023-01-30T00:37:43.326Z,0.00
2023-01-30T00:38:43.339Z,0.00
2023-01-30T00:39:43.305Z,0.00
2023-01-30T00:40:43.295Z,0.00
2023-01-30T00:41:43.301Z,0.00
2023-01-30T00:42:43.270Z,0.00
2023-01-30T00:43:43.276Z,0.00
2023-01-30T00:44:43.246Z,0.00
2023-01-30T00:45:43.339Z,0.00
2023-01-30T00:46:43.241Z,0.00
2023-01-30T00:47:43.215Z,0.00
2023-01-30T00:48:43.205Z,0.00
2023-01-30T00:49:43.202Z,0.00
2023-01-30T00:50:43.196Z,0.00
2023-01-30T00:51:43.194Z,0.00
2023-01-30T00:52:43.170Z,0.00
2023-01-30T00:53:43.159Z,0.00
2023-01-30T00:54:43.149Z,0.00
2023-01-30T00:55:43.131Z,0.00
2023-01-30T00:56:43.136Z,0.00
2023-01-30T00:57:43.110Z,0.00
2023-01-30T00:58:43.095Z,0.00
2023-01-30T00:59:43.100Z,0.00
2023-01-30T01:00:43.081Z,0.00
2023-01-30T01:01:43.119Z,0.00
2023-01-30T01:02:43.122Z,0.00
2023-01-30T01:03:43.068Z,0.00
2023-01-30T01:04:43.039Z,0.00
2023-01-30T01:05:43.039Z,0.00
2023-01-30T01:06:43.017Z,0.00
2023-01-30T01:07:43.015Z,0.00
2023-01-30T01:08:43.019Z,0.00
2023-01-30T01:09:43.020Z,0.00
2023-01-30T01:10:42.974Z,0.00
2023-01-30T01:11:42.957Z,0.00
2023-01-30T01:12:42.962Z,0.00
2023-01-30T01:13:42.970Z,0.00
2023-01-30T01:14:42.938Z,0.00
2023-01-30T01:15:42.937Z,0.00
2023-01-30T01:16:42.950Z,0.00
2023-01-30T01:17:42.920Z,0.00
2023-01-30T01:18:42.909Z,0.00
2023-01-30T01:19:42.887Z,0.00
2023-01-30T01:20:42.879Z,0.00
2023-01-30T01:21:42.890Z,0.00
2023-01-30T01:22:42.862Z,0.00
2023-01-30T01:23:42.868Z,0.00
2023-01-30T01:24:42.828Z,0.00
2023-01-30T01:25:42.827Z,0.00
2023-01-30T01:26:42.969Z,0.00
2023-01-30T01:27:42.813Z,0.00
2023-01-30T01:28:42.794Z,0.00
2023-01-30T01:29:42.799Z,0.00
2023-01-30T01:30:42.773Z,0.00
2023-01-30T01:31:42.914Z,0.00
2023-01-30T01:32:42.750Z,0.00
2023-01-30T01:33:42.770Z,0.00
2023-01-30T01:34:42.729Z,0.00
2023-01-30T01:35:42.742Z,0.00
2023-01-30T01:36:53.182Z,0.00
2023-01-30T01:37:42.739Z,0.00
2023-01-30T01:38:42.689Z,0.00
2023-01-30T01:39:42.694Z,0.00
2023-01-30T01:40:42.675Z,0.00
2023-01-30T01:41:42.686Z,0.00
2023-01-30T01:42:42.667Z,0.00
2023-01-30T01:43:42.654Z,0.00
2023-01-30T01:44:42.636Z,0.00
2023-01-30T01:45:42.662Z,0.00
2023-01-30T01:46:42.621Z,0.00
2023-01-30T01:47:42.616Z,0.00
2023-01-30T01:48:42.618Z,0.00
2023-01-30T01:49:42.591Z,0.00
2023-01-30T01:50:42.593Z,0.00
2023-01-30T01:51:42.628Z,0.00
2023-01-30T01:52:42.551Z,0.00
2023-01-30T01:53:42.592Z,0.00
2023-01-30T01:54:42.552Z,0.00
2023-01-30T01:55:42.540Z,0.00
2023-01-30T01:56:42.544Z,0.00
2023-01-30T01:57:42.509Z,0.00
2023-01-30T01:58:42.492Z,0.00
2023-01-30T01:59:42.502Z,0.00
2023-01-30T02:00:42.488Z,0.00
2023-01-30T02:01:42.483Z,0.00
2023-01-30T02:02:42.469Z,0.00
2023-01-30T02:03:42.446Z,0.00
2023-01-30T02:04:42.446Z,0.00
2023-01-30T02:05:42.426Z,0.00
2023-01-30T02:06:42.424Z,0.00
2023-01-30T02:07:42.408Z,0.00
2023-01-30T02:08:42.386Z,0.00
2023-01-30T02:09:42.398Z,0.00
2023-01-30T02:10:42.363Z,0.00
2023-01-30T02:11:42.372Z,0.00
2023-01-30T02:12:42.351Z,0.00
2023-01-30T02:13:42.344Z,0.00
2023-01-30T02:14:42.324Z,0.00
2023-01-30T02:15:42.326Z,0.00
2023-01-30T02:16:42.341Z,0.00
2023-01-30T02:17:42.338Z,0.00
2023-01-30T02:18:42.308Z,0.00
2023-01-30T02:19:42.283Z,0.00
2023-01-30T02:20:42.282Z,0.00
2023-01-30T02:21:42.273Z,0.00
2023-01-30T02:22:42.250Z,0.00
2023-01-30T02:23:42.248Z,0.00
2023-01-30T02:24:42.232Z,0.00
2023-01-30T02:25:42.218Z,0.00
2023-01-30T02:26:42.309Z,0.00
2023-01-30T02:27:42.221Z,0.00
2023-01-30T02:28:42.180Z,0.00
2023-01-30T02:29:42.176Z,0.00
2023-01-30T02:30:42.253Z,0.00
2023-01-30T02:31:42.264Z,0.00
2023-01-30T02:32:42.139Z,0.00
2023-01-30T02:33:42.143Z,0.00
2023-01-30T02:34:42.137Z,0.00
2023-01-30T02:35:42.118Z,0.00
2023-01-30T02:36:42.109Z,0.00
2023-01-30T02:37:42.107Z,0.00
2023-01-30T02:38:42.080Z,0.00
2023-01-30T02:39:42.089Z,0.00
2023-01-30T02:40:42.060Z,0.00
2023-01-30T02:41:42.095Z,0.00
2023-01-30T02:42:42.058Z,0.00
2023-01-30T02:43:42.048Z,0.00
2023-01-30T02:44:42.020Z,0.00
2023-01-30T02:45:42.109Z,0.00
2023-01-30T02:46:42.012Z,0.00
2023-01-30T02:47:41.995Z,0.00
2023-01-30T02:48:41.988Z,0.00
2023-01-30T02:49:41.967Z,0.00
2023-01-30T02:50:41.963Z,0.00
2023-01-30T02:51:41.965Z,0.00
2023-01-30T02:52:41.935Z,0.00
2023-01-30T02:53:41.937Z,0.00
2023-01-30T02:54:41.916Z,0.00
2023-01-30T02:55:41.908Z,0.00
2023-01-30T02:56:41.909Z,0.00
2023-01-30T02:57:41.887Z,0.00
2023-01-30T02:58:41.874Z,0.00
2023-01-30T02:59:41.883Z,0.00
2023-01-30T03:00:41.858Z,0.00
2023-01-30T03:01:41.921Z,0.00
2023-01-30T03:02:41.888Z,0.00
2023-01-30T03:03:41.839Z,0.00
2023-01-30T03:04:41.817Z,0.00
2023-01-30T03:05:41.815Z,0.00
2023-01-30T03:06:41.825Z,0.00
2023-01-30T03:07:41.795Z,0.00
2023-01-30T03:08:41.785Z,0.00
2023-01-30T03:09:41.791Z,0.00
2023-01-30T03:10:41.751Z,0.00
2023-01-30T03:11:41.765Z,0.00
2023-01-30T03:12:41.738Z,0.00
2023-01-30T03:13:41.735Z,0.00
2023-01-30T03:14:41.727Z,0.00
2023-01-30T03:15:41.711Z,0.00
2023-01-30T03:16:41.702Z,0.00
2023-01-30T03:17:41.693Z,0.00
2023-01-30T03:18:41.801Z,0.00
2023-01-30T03:19:41.693Z,0.00
2023-01-30T03:20:41.665Z,0.00
2023-01-30T03:21:41.698Z,0.00
2023-01-30T03:22:41.636Z,0.00
2023-01-30T03:23:41.639Z,0.00
2023-01-30T03:24:41.620Z,0.00
2023-01-30T03:25:41.616Z,0.00
2023-01-30T03:26:41.666Z,0.00
2023-01-30T03:27:41.600Z,0.00
2023-01-30T03:28:41.583Z,0.00
2023-01-30T03:29:41.580Z,0.00
2023-01-30T03:30:41.569Z,0.00
2023-01-30T03:31:41.671Z,0.00
2023-01-30T03:32:41.546Z,0.00
2023-01-30T03:33:41.528Z,0.00
2023-01-30T03:34:41.531Z,0.00
2023-01-30T03:35:41.508Z,0.00
2023-01-30T03:36:41.510Z,0.00
2023-01-30T03:37:41.494Z,0.00
2023-01-30T03:38:41.482Z,0.00
2023-01-30T03:39:41.479Z,0.00
2023-01-30T03:40:41.470Z,0.00
2023-01-30T03:41:41.445Z,0.00
2023-01-30T03:42:41.469Z,0.00
2023-01-30T03:43:41.430Z,0.00
2023-01-30T03:44:41.424Z,0.00
2023-01-30T03:45:41.435Z,0.00
2023-01-30T03:46:41.414Z,0.00
2023-01-30T03:47:41.400Z,0.00
2023-01-30T03:48:41.384Z,0.00
2023-01-30T03:49:41.364Z,0.00
2023-01-30T03:50:41.359Z,0.00
2023-01-30T03:51:41.351Z,0.00
2023-01-30T03:52:41.359Z,0.00
2023-01-30T03:53:41.333Z,0.00
2023-01-30T03:54:41.324Z,0.00
2023-01-30T03:55:41.305Z,0.00
2023-01-30T03:56:41.308Z,0.00
2023-01-30T03:57:41.358Z,0.00
2023-01-30T03:58:41.282Z,0.00
2023-01-30T03:59:41.267Z,0.00
2023-01-30T04:00:41.264Z,0.00
2023-01-30T04:01:41.259Z,0.00
2023-01-30T04:02:41.278Z,0.00
2023-01-30T04:03:41.245Z,0.00
2023-01-30T04:04:41.245Z,0.00
2023-01-30T04:05:41.219Z,0.00
2023-01-30T04:06:41.214Z,0.00
2023-01-30T04:07:41.204Z,0.00
2023-01-30T04:08:41.191Z,0.00
2023-01-30T04:09:41.162Z,0.00
2023-01-30T04:10:41.167Z,0.00
2023-01-30T04:11:41.151Z,0.00
2023-01-30T04:12:41.151Z,0.00
2023-01-30T04:13:41.133Z,0.00
2023-01-30T04:14:41.119Z,0.00
2023-01-30T04:15:41.110Z,0.00
2023-01-30T04:16:41.240Z,0.00
2023-01-30T04:17:41.104Z,0.00
2023-01-30T04:18:41.082Z,0.00
2023-01-30T04:19:41.062Z,0.00
2023-01-30T04:20:41.057Z,0.00
2023-01-30T04:21:41.043Z,0.00
2023-01-30T04:22:41.065Z,0.00
2023-01-30T04:23:41.028Z,0.00
2023-01-30T04:24:41.022Z,0.00
2023-01-30T04:25:41.019Z,0.00
2023-01-30T04:26:41.073Z,0.00
2023-01-30T04:27:41.000Z,0.00
2023-01-30T04:28:40.987Z,0.00
2023-01-30T04:29:40.983Z,0.00
2023-01-30T04:30:41.007Z,0.00
2023-01-30T04:31:40.975Z,0.00
2023-01-30T04:32:40.958Z,0.00
2023-01-30T04:33:40.927Z,0.00
2023-01-30T04:34:40.925Z,0.00
2023-01-30T04:35:40.901Z,0.00
2023-01-30T04:36:40.908Z,0.00
2023-01-30T04:37:40.896Z,0.00
2023-01-30T04:38:40.879Z,0.00
2023-01-30T04:39:40.857Z,0.00
2023-01-30T04:40:40.859Z,0.00
2023-01-30T04:41:40.842Z,0.00
2023-01-30T04:42:40.845Z,0.00
2023-01-30T04:43:40.839Z,0.00
2023-01-30T04:44:40.827Z,0.00
2023-01-30T04:45:40.805Z,0.00
2023-01-30T04:46:40.795Z,0.00
2023-01-30T04:47:40.900Z,0.00
2023-01-30T04:48:40.774Z,0.00
2023-01-30T04:49:40.758Z,0.00
2023-01-30T04:50:40.757Z,0.00
2023-01-30T04:51:40.730Z,0.00
2023-01-30T04:52:40.735Z,0.00
2023-01-30T04:53:40.713Z,0.00
2023-01-30T04:54:40.704Z,0.00
2023-01-30T04:55:40.703Z,0.00
2023-01-30T04:56:40.689Z,0.00
2023-01-30T04:57:40.689Z,0.00
2023-01-30T04:58:40.679Z,0.00
2023-01-30T04:59:40.675Z,0.00
2023-01-30T05:00:40.688Z,0.00
2023-01-30T05:01:40.681Z,0.00
2023-01-30T05:02:40.652Z,0.00
2023-01-30T05:03:40.613Z,0.00
2023-01-30T05:04:40.612Z,0.00
2023-01-30T05:05:40.588Z,0.00
2023-01-30T05:06:40.577Z,0.00
2023-01-30T05:07:40.582Z,0.00
2023-01-30T05:08:40.569Z,0.00
2023-01-30T05:09:40.540Z,0.00
2023-01-30T05:10:40.557Z,0.00
2023-01-30T05:11:40.531Z,0.00
2023-01-30T05:12:40.533Z,0.00
2023-01-30T05:13:40.514Z,0.00
2023-01-30T05:14:40.498Z,0.00
2023-01-30T05:15:40.489Z,0.00
2023-01-30T05:16:40.482Z,0.00
2023-01-30T05:17:42.009Z,0.00
2023-01-30T05:18:40.457Z,0.00
2023-01-30T05:19:40.448Z,0.00
2023-01-30T05:20:40.443Z,0.00
2023-01-30T05:21:40.423Z,0.00
2023-01-30T05:22:40.438Z,0.00
2023-01-30T05:23:40.412Z,0.00
2023-01-30T05:24:40.392Z,0.00
2023-01-30T05:25:40.463Z,0.00
2023-01-30T05:26:40.412Z,0.00
2023-01-30T05:27:40.393Z,0.00
2023-01-30T05:28:40.359Z,0.00
2023-01-30T05:29:40.337Z,0.00
2023-01-30T05:30:40.410Z,0.00
2023-01-30T05:31:40.373Z,0.00
2023-01-30T05:32:40.335Z,0.00
2023-01-30T05:33:40.301Z,0.00
2023-01-30T05:34:40.303Z,0.00
2023-01-30T05:35:40.294Z,0.00
2023-01-30T05:36:40.271Z,0.00
2023-01-30T05:37:40.278Z,0.00
2023-01-30T05:38:40.249Z,0.00
2023-01-30T05:39:40.245Z,0.00
2023-01-30T05:40:40.242Z,0.00
2023-01-30T05:41:40.233Z,0.00
2023-01-30T05:42:40.225Z,0.00
2023-01-30T05:43:40.206Z,0.00
2023-01-30T05:44:40.192Z,0.00
2023-01-30T05:45:40.201Z,0.00
2023-01-30T05:46:40.205Z,0.00
2023-01-30T05:47:40.169Z,0.00
2023-01-30T05:48:40.147Z,0.00
2023-01-30T05:49:40.140Z,0.00
2023-01-30T05:50:40.137Z,0.00
2023-01-30T05:51:40.113Z,0.00
2023-01-30T05:52:40.118Z,0.00
2023-01-30T05:53:40.093Z,0.00
2023-01-30T05:54:40.096Z,0.00
2023-01-30T05:55:40.071Z,0.00
2023-01-30T05:56:40.075Z,0.00
2023-01-30T05:57:40.105Z,0.00
2023-01-30T05:58:40.060Z,0.00
2023-01-30T05:59:40.058Z,0.00
2023-01-30T06:00:40.038Z,0.00
2023-01-30T06:01:40.023Z,0.00
2023-01-30T06:02:40.097Z,0.00
2023-01-30T06:03:40.005Z,0.00
2023-01-30T06:04:40.044Z,0.00
2023-01-30T06:05:39.994Z,0.00
2023-01-30T06:06:39.987Z,0.00
2023-01-30T06:07:39.987Z,0.00
2023-01-30T06:08:39.946Z,0.00
2023-01-30T06:09:39.938Z,0.00
2023-01-30T06:10:39.934Z,0.00
2023-01-30T06:11:39.926Z,0.00
2023-01-30T06:12:39.931Z,0.00
2023-01-30T06:13:39.893Z,0.00
2023-01-30T06:14:39.885Z,0.00
2023-01-30T06:15:40.024Z,0.00
2023-01-30T06:16:39.896Z,0.00
2023-01-30T06:17:39.871Z,0.00
2023-01-30T06:18:39.855Z,0.00
2023-01-30T06:19:39.847Z,0.00
2023-01-30T06:20:39.835Z,0.00
2023-01-30T06:21:39.840Z,0.00
2023-01-30T06:22:39.816Z,0.00
2023-01-30T06:23:39.799Z,0.00
2023-01-30T06:24:39.783Z,0.00
2023-01-30T06:25:39.777Z,0.00
2023-01-30T06:26:39.799Z,0.00
2023-01-30T06:27:39.761Z,0.00
2023-01-30T06:28:39.768Z,1.00
2023-01-30T06:29:39.742Z,0.00
2023-01-30T06:30:39.805Z,0.00
2023-01-30T06:31:39.758Z,0.00
2023-01-30T06:32:39.715Z,0.00
2023-01-30T06:33:39.643Z,2.00
2023-01-30T06:34:39.657Z,1.00
2023-01-30T06:35:39.633Z,1.00
2023-01-30T06:36:39.608Z,1.00
2023-01-30T06:37:39.609Z,1.00
2023-01-30T06:38:39.605Z,2.00
2023-01-30T06:39:39.580Z,1.00
2023-01-30T06:40:39.566Z,1.00
2023-01-30T06:41:39.568Z,1.00
2023-01-30T06:42:39.571Z,4.00
2023-01-30T06:43:39.574Z,10.00
2023-01-30T06:44:39.524Z,10.00
2023-01-30T06:45:39.516Z,10.00
2023-01-30T06:46:39.510Z,11.00
2023-01-30T06:47:39.532Z,11.00
2023-01-30T06:48:39.483Z,11.00
2023-01-30T06:49:39.483Z,11.00
2023-01-30T06:50:39.464Z,12.00
2023-01-30T06:51:39.455Z,12.00
2023-01-30T06:52:39.458Z,17.00
2023-01-30T06:53:39.439Z,17.00
2023-01-30T06:54:39.429Z,17.00
2023-01-30T06:55:39.399Z,17.00
2023-01-30T06:56:39.428Z,18.00
2023-01-30T06:57:39.382Z,22.00
2023-01-30T06:58:39.445Z,21.00
2023-01-30T06:59:39.371Z,26.00
2023-01-30T07:00:39.395Z,27.00
2023-01-30T07:01:39.455Z,31.00
2023-01-30T07:02:39.345Z,35.00
2023-01-30T07:03:39.342Z,37.00
2023-01-30T07:04:39.354Z,37.00
2023-01-30T07:05:39.332Z,37.00
2023-01-30T07:06:40.278Z,41.00
2023-01-30T07:07:39.281Z,47.00
2023-01-30T07:08:39.303Z,51.00
2023-01-30T07:09:39.293Z,57.00
2023-01-30T07:10:39.274Z,56.00
2023-01-30T07:11:39.247Z,59.00
2023-01-30T07:12:39.251Z,72.00
2023-01-30T07:13:39.268Z,31.00
2023-01-30T07:14:39.223Z,78.00
2023-01-30T07:15:39.209Z,104.00
2023-01-30T07:16:39.236Z,96.00
2023-01-30T07:17:39.191Z,99.00
2023-01-30T07:18:39.211Z,81.00
2023-01-30T07:19:39.178Z,79.00
2023-01-30T07:20:39.159Z,84.00
2023-01-30T07:21:39.141Z,119.00
2023-01-30T07:22:39.140Z,133.00
2023-01-30T07:23:39.339Z,124.00
2023-01-30T07:24:39.121Z,160.00
2023-01-30T07:25:39.093Z,128.00
2023-01-30T07:26:39.126Z,106.00
2023-01-30T07:27:39.073Z,151.00
2023-01-30T07:28:39.063Z,107.00
2023-01-30T07:29:39.072Z,129.00
2023-01-30T07:30:39.075Z,134.00
2023-01-30T07:31:39.077Z,172.00
2023-01-30T07:32:39.020Z,197.00
2023-01-30T07:33:39.030Z,229.00
2023-01-30T07:34:38.997Z,266.00
2023-01-30T07:35:38.992Z,206.00
2023-01-30T07:36:38.991Z,188.00
2023-01-30T07:37:38.970Z,115.00
2023-01-30T07:38:38.984Z,255.00
2023-01-30T07:39:38.958Z,195.00
2023-01-30T07:40:38.944Z,166.00
2023-01-30T07:41:38.947Z,117.00
2023-01-30T07:42:38.918Z,454.00
2023-01-30T07:43:38.934Z,262.00
2023-01-30T07:44:38.896Z,145.00
2023-01-30T07:45:38.891Z,343.00
2023-01-30T07:46:38.898Z,379.00
2023-01-30T07:47:38.856Z,341.00
2023-01-30T07:48:38.908Z,314.00
2023-01-30T07:49:38.844Z,184.00
2023-01-30T07:50:38.839Z,329.00
2023-01-30T07:51:38.823Z,264.00
2023-01-30T07:52:38.804Z,230.00
2023-01-30T07:53:38.831Z,196.00
2023-01-30T07:54:38.784Z,201.00
2023-01-30T07:55:38.783Z,214.00
2023-01-30T07:56:38.757Z,157.00
2023-01-30T07:57:38.762Z,252.00
2023-01-30T07:58:38.993Z,266.00
2023-01-30T07:59:38.734Z,304.00
2023-01-30T08:00:38.717Z,298.00
2023-01-30T08:01:38.716Z,207.00
2023-01-30T08:02:38.701Z,267.00
2023-01-30T08:03:38.703Z,304.00
2023-01-30T08:04:38.763Z,262.00
2023-01-30T08:05:38.685Z,356.00
2023-01-30T08:06:38.655Z,206.00
2023-01-30T08:07:38.646Z,359.00
2023-01-30T08:08:38.632Z,261.00
2023-01-30T08:09:38.625Z,391.00
2023-01-30T08:10:38.639Z,608.00
2023-01-30T08:11:38.605Z,251.00
2023-01-30T08:12:38.595Z,501.00
2023-01-30T08:13:38.619Z,400.00
2023-01-30T08:14:38.576Z,570.00
2023-01-30T08:15:38.566Z,937.00
2023-01-30T08:16:38.586Z,635.00
2023-01-30T08:17:38.545Z,715.00
2023-01-30T08:18:38.561Z,625.00
2023-01-30T08:19:38.526Z,916.00
2023-01-30T08:20:38.501Z,801.00
2023-01-30T08:21:38.501Z,635.00
2023-01-30T08:22:38.486Z,463.00
2023-01-30T08:23:38.492Z,527.00
2023-01-30T08:24:38.472Z,522.00
2023-01-30T08:25:38.478Z,460.00
2023-01-30T08:26:38.514Z,261.00
2023-01-30T08:27:38.434Z,223.00
2023-01-30T08:28:38.425Z,568.00
2023-01-30T08:29:38.416Z,949.00
2023-01-30T08:30:38.483Z,636.00
2023-01-30T08:31:38.427Z,824.00
2023-01-30T08:32:38.381Z,1571.00
2023-01-30T08:33:38.378Z,1835.00
2023-01-30T08:34:38.352Z,1344.00
2023-01-30T08:35:38.355Z,1236.00
2023-01-30T08:36:38.346Z,655.00
2023-01-30T08:37:38.333Z,1771.00
2023-01-30T08:38:38.336Z,2484.00
2023-01-30T08:39:38.321Z,1601.00
2023-01-30T08:40:38.294Z,985.00
2023-01-30T08:41:38.293Z,998.00
2023-01-30T08:42:38.275Z,936.00
2023-01-30T08:43:38.282Z,899.00
2023-01-30T08:44:38.248Z,895.00
2023-01-30T08:45:38.250Z,609.00
2023-01-30T08:46:38.257Z,528.00
2023-01-30T08:47:38.227Z,454.00
2023-01-30T08:48:49.251Z,367.00
2023-01-30T08:49:38.224Z,185.00
2023-01-30T08:50:38.188Z,659.00
2023-01-30T08:51:38.177Z,593.00
2023-01-30T08:52:38.167Z,470.00
2023-01-30T08:53:38.178Z,476.00
2023-01-30T08:54:38.143Z,797.00
2023-01-30T08:55:38.133Z,948.00
2023-01-30T08:56:38.119Z,537.00
2023-01-30T08:57:38.112Z,552.00
2023-01-30T08:58:38.124Z,289.00
2023-01-30T08:59:44.154Z,490.00
2023-01-30T09:00:38.071Z,273.00
2023-01-30T09:01:38.148Z,800.00
2023-01-30T09:02:38.841Z,751.00
2023-01-30T09:03:38.092Z,421.00
2023-01-30T09:04:38.085Z,1197.00
2023-01-30T09:05:38.028Z,1122.00
2023-01-30T09:06:38.035Z,1472.00
2023-01-30T09:07:38.015Z,742.00
2023-01-30T09:08:38.000Z,440.00
2023-01-30T09:09:37.990Z,1589.00
2023-01-30T09:10:37.984Z,1784.00
2023-01-30T09:11:37.999Z,1651.00
2023-01-30T09:12:37.971Z,1853.00
2023-01-30T09:13:37.952Z,3045.00
2023-01-30T09:14:37.936Z,2396.00
2023-01-30T09:15:37.989Z,1647.00
2023-01-30T09:16:38.009Z,2024.00
2023-01-30T09:17:37.916Z,2222.00
2023-01-30T09:18:37.911Z,1669.00
2023-01-30T09:19:37.878Z,1454.00
2023-01-30T09:20:37.876Z,1361.00
2023-01-30T09:21:37.875Z,1456.00
2023-01-30T09:22:37.865Z,1319.00
2023-01-30T09:23:37.850Z,960.00
2023-01-30T09:24:37.830Z,1262.00
2023-01-30T09:25:37.827Z,1836.00
2023-01-30T09:26:37.868Z,1525.00
2023-01-30T09:27:37.806Z,832.00
2023-01-30T09:28:37.896Z,1179.00
2023-01-30T09:29:37.780Z,1007.00
2023-01-30T09:30:37.849Z,1721.00
2023-01-30T09:31:37.855Z,1399.00
2023-01-30T09:32:37.743Z,1547.00
2023-01-30T09:33:37.793Z,1260.00
2023-01-30T09:34:37.722Z,1005.00
2023-01-30T09:35:37.723Z,1215.00
2023-01-30T09:36:37.718Z,896.00
2023-01-30T09:37:37.692Z,1001.00
2023-01-30T09:38:37.698Z,1487.00
2023-01-30T09:39:37.682Z,1308.00
2023-01-30T09:40:37.677Z,1357.00
2023-01-30T09:41:37.672Z,1769.00
2023-01-30T09:42:38.218Z,1915.00
2023-01-30T09:43:37.656Z,2097.00
2023-01-30T09:44:37.606Z,2152.00
2023-01-30T09:45:37.777Z,1700.00
2023-01-30T09:46:37.620Z,1374.00
2023-01-30T09:47:38.247Z,1101.00
2023-01-30T09:48:39.638Z,906.00
2023-01-30T09:49:37.558Z,1301.00
2023-01-30T09:50:37.553Z,1018.00
2023-01-30T09:51:37.551Z,2589.00
2023-01-30T09:52:37.587Z,1919.00
2023-01-30T09:53:37.534Z,1779.00
2023-01-30T09:54:37.559Z,1935.00
2023-01-30T09:55:37.576Z,933.00
2023-01-30T09:56:37.507Z,1581.00
2023-01-30T09:57:37.490Z,1702.00
2023-01-30T09:58:38.278Z,2440.00
2023-01-30T09:59:37.459Z,2146.00
2023-01-30T10:00:37.472Z,1662.00
2023-01-30T10:01:37.451Z,1674.00
2023-01-30T10:02:37.416Z,2215.00
2023-01-30T10:03:37.505Z,2522.00
2023-01-30T10:04:39.062Z,2727.00
2023-01-30T10:05:37.424Z,1912.00
2023-01-30T10:06:37.432Z,2012.00
2023-01-30T10:07:37.392Z,2306.00
2023-01-30T10:08:37.355Z,1728.00
2023-01-30T10:09:37.405Z,953.00
2023-01-30T10:10:37.327Z,1941.00
2023-01-30T10:11:37.351Z,1524.00
2023-01-30T10:12:37.364Z,909.00
2023-01-30T10:13:37.302Z,398.00
2023-01-30T10:14:37.362Z,850.00
2023-01-30T10:15:37.370Z,3014.00
2023-01-30T10:16:37.332Z,3771.00
2023-01-30T10:17:37.301Z,3696.00
2023-01-30T10:18:37.247Z,2104.00
2023-01-30T10:19:37.319Z,1827.00
2023-01-30T10:20:37.218Z,1893.00
2023-01-30T10:21:37.262Z,1448.00
2023-01-30T10:22:37.230Z,3668.00
2023-01-30T10:23:37.239Z,4664.00
2023-01-30T10:24:37.199Z,1082.00
2023-01-30T10:25:37.197Z,3608.00
2023-01-30T10:26:37.257Z,4705.00
2023-01-30T10:27:37.161Z,3538.00
2023-01-30T10:28:37.149Z,1790.00
2023-01-30T10:29:37.127Z,2393.00
2023-01-30T10:30:37.222Z,2180.00
2023-01-30T10:31:37.211Z,3591.00
2023-01-30T10:32:37.091Z,5060.00
2023-01-30T10:33:37.131Z,4636.00
2023-01-30T10:34:37.163Z,2542.00
2023-01-30T10:35:37.133Z,2212.00
2023-01-30T10:36:37.070Z,3920.00
2023-01-30T10:37:37.049Z,2922.00
2023-01-30T10:38:37.038Z,3804.00
2023-01-30T10:39:40.857Z,3370.00
2023-01-30T10:40:37.015Z,2814.00
2023-01-30T10:41:37.023Z,3740.00
2023-01-30T10:42:38.870Z,4923.00
2023-01-30T10:43:36.990Z,4380.00
2023-01-30T10:44:36.975Z,3480.00
2023-01-30T10:45:36.990Z,3719.00
2023-01-30T10:46:37.001Z,3998.00
2023-01-30T10:47:46.567Z,3396.00
2023-01-30T10:48:45.779Z,2580.00
2023-01-30T10:49:36.958Z,3207.00
2023-01-30T10:50:36.908Z,3393.00
2023-01-30T10:51:36.905Z,1529.00
2023-01-30T10:52:36.914Z,2419.00
2023-01-30T10:53:36.869Z,2489.00
2023-01-30T10:54:36.911Z,3043.00
2023-01-30T10:55:38.374Z,2643.00
2023-01-30T10:56:36.843Z,2715.00
2023-01-30T10:57:36.850Z,2172.00
2023-01-30T10:58:36.813Z,1927.00
2023-01-30T10:59:36.842Z,1840.00
2023-01-30T11:00:36.826Z,974.00
2023-01-30T11:01:36.950Z,1655.00
2023-01-30T11:02:36.812Z,2722.00
2023-01-30T11:03:36.819Z,1827.00
2023-01-30T11:04:36.775Z,1458.00
2023-01-30T11:05:36.764Z,1644.00
2023-01-30T11:06:36.741Z,1595.00
2023-01-30T11:07:36.731Z,1335.00
2023-01-30T11:08:36.710Z,1905.00
2023-01-30T11:09:36.749Z,1709.00
2023-01-30T11:10:36.724Z,2123.00
2023-01-30T11:11:36.687Z,3024.00
2023-01-30T11:12:36.804Z,2502.00
2023-01-30T11:13:36.674Z,2325.00
2023-01-30T11:14:36.660Z,1754.00
2023-01-30T11:15:36.645Z,1054.00
2023-01-30T11:16:36.622Z,1370.00
2023-01-30T11:17:36.610Z,1219.00
2023-01-30T11:19:36.612Z,2344.00
2023-01-30T11:20:36.582Z,1423.00
2023-01-30T11:21:43.924Z,1167.00
2023-01-30T11:22:36.566Z,1386.00
2023-01-30T11:23:36.547Z,1969.00
2023-01-30T11:24:36.552Z,1729.00
2023-01-30T11:25:36.533Z,2032.00
2023-01-30T11:26:46.847Z,3057.00
2023-01-30T11:27:36.575Z,3228.00
2023-01-30T11:28:36.545Z,5110.00
2023-01-30T11:29:36.547Z,4215.00
2023-01-30T11:30:36.485Z,5679.00
2023-01-30T11:31:41.568Z,5919.00
2023-01-30T11:32:36.502Z,3645.00
2023-01-30T11:33:36.482Z,2979.00
2023-01-30T11:34:36.474Z,3280.00
2023-01-30T11:35:36.429Z,2813.00
2023-01-30T11:36:36.424Z,2823.00
2023-01-30T11:37:36.431Z,2831.00
2023-01-30T11:38:36.392Z,2049.00
2023-01-30T11:39:36.401Z,2846.00
2023-01-30T11:40:36.381Z,2168.00
2023-01-30T11:41:36.357Z,1272.00
2023-01-30T11:42:36.355Z,2064.00
2023-01-30T11:43:36.360Z,2315.00
2023-01-30T11:44:36.371Z,1956.00
2023-01-30T11:45:36.443Z,1498.00
2023-01-30T11:46:36.327Z,1310.00
2023-01-30T11:47:36.478Z,886.00
2023-01-30T11:49:32.114Z,1455.00
2023-01-30T11:49:50.087Z,1139.00
2023-01-30T11:50:38.200Z,533.00
2023-01-30T11:51:36.263Z,1704.00
2023-01-30T11:52:36.252Z,3029.00
2023-01-30T11:53:36.246Z,2579.00
2023-01-30T11:54:36.285Z,1892.00
2023-01-30T11:55:36.218Z,2868.00
2023-01-30T11:56:36.221Z,2612.00
2023-01-30T11:57:36.236Z,1925.00
2023-01-30T11:58:36.209Z,1240.00
2023-01-30T11:59:36.216Z,1240.00
2023-01-30T12:00:36.184Z,1572.00
2023-01-30T12:01:36.196Z,1319.00
2023-01-30T12:02:36.156Z,960.00
2023-01-30T12:03:36.169Z,746.00
2023-01-30T12:04:36.312Z,416.00
2023-01-30T12:05:36.107Z,449.00
2023-01-30T12:06:36.154Z,796.00
2023-01-30T12:07:36.135Z,852.00
2023-01-30T12:08:43.115Z,982.00
2023-01-30T12:09:36.097Z,1079.00
2023-01-30T12:10:36.088Z,1167.00
2023-01-30T12:11:36.056Z,1312.00
2023-01-30T12:12:36.060Z,900.00
2023-01-30T12:13:36.041Z,575.00
2023-01-30T12:14:36.049Z,458.00
2023-01-30T12:15:36.053Z,383.00
2023-01-30T12:16:36.076Z,286.00
2023-01-30T12:17:36.001Z,193.00
2023-01-30T12:18:35.979Z,720.00
2023-01-30T12:19:35.997Z,1330.00
2023-01-30T12:20:35.970Z,2299.00
2023-01-30T12:21:35.978Z,3321.00
2023-01-30T12:22:35.953Z,3694.00
2023-01-30T12:23:35.917Z,3333.00
2023-01-30T12:24:35.938Z,3026.00
2023-01-30T12:25:35.933Z,4263.00
2023-01-30T12:26:35.936Z,3863.00
2023-01-30T12:27:35.883Z,3378.00
2023-01-30T12:28:35.869Z,2423.00
2023-01-30T12:29:35.953Z,3002.00
2023-01-30T12:30:35.956Z,6150.00
2023-01-30T12:31:35.895Z,6148.00
2023-01-30T12:32:35.866Z,5884.00
2023-01-30T12:33:35.830Z,6132.00
2023-01-30T12:34:36.141Z,6367.00
2023-01-30T12:35:35.802Z,5682.00
2023-01-30T12:36:35.796Z,4659.00
2023-01-30T12:37:35.815Z,3301.00
2023-01-30T12:38:35.762Z,2604.00
2023-01-30T12:39:35.785Z,4972.00
2023-01-30T12:40:35.745Z,4398.00
2023-01-30T12:41:35.745Z,3387.00
2023-01-30T12:42:35.801Z,2149.00
2023-01-30T12:43:35.712Z,3974.00
2023-01-30T12:44:35.739Z,3491.00
2023-01-30T12:45:35.691Z,5431.00
2023-01-30T12:46:35.705Z,3805.00
2023-01-30T12:47:35.671Z,2498.00
2023-01-30T12:48:44.065Z,1324.00
2023-01-30T12:49:35.749Z,1958.00